Race Results for
Muddy River Rock'n Roll
Red Wing, MN
(Event Information)
View By:
Cross Country on 07/24/2005

Note: Ranking points are NOT upgrade points. An explanation of ranking points can be found here.


Men - SP - Junior - 12-15

 Place Points NameCity, StateTime USAC #BibTeam
1David Block   1:16:16.8  1561 
DNFMatt Riley     1549 

Men - SP - Junior - 16-18

 Place Points NameCity, StateTime USAC #BibTeam
1Ryan Wallace   1:37:02.4  2532 
1Aaron Deutchman   1:07:46.4  1540 
2Bret Romberg   1:07:52.1  1570 
3Jim Ward   1:11:30.8  1555 
4Peter Odonnell   1:19:09.8  1560 
DNFTruman Purdy     2539 

Men - SP - Senior - 19-29

 Place Points NameCity, StateTime USAC #BibTeam
1James McManus   1:27:52.7  2548 
2Barry Tungseth   1:27:54.1  2526 
3David Meyer   1:29:36.3  2538 
4Jason Wenk   1:29:39.5  2534 
5John Wenger   1:29:41.1  2523 
6Dave Oachs   1:30:41.2  2540 
7Marty Wood   1:30:52.8  2542 
8Ryan Lee   1:39:24.2  2527 
9Andy Schlicht   1:43:36.5  2544 
10Andy Ruhland   1:44:53.7  2528 
11Matthew Kurke   1:00:52.4  1567 
12Jeremiah Stevens   1:01:57.4  1605 
13Bruce Martens   1:03:14.9  1550 
14Gregory Stanis   1:05:09.5  1599 
15Nicholis Statz   1:05:57.5  1553 
16570.31Nick Caliva   River Falls, WI1:06:49.9 227751  1513 
17Steve Sturman   1:06:51.2  1533 
18Nate Ryder   1:08:43.6  1529 
19Michael Kobelinski   1:08:57.8  1519 
20Karl Nelson   1:11:25.6  1592 
21Porter Million   1:15:28.7  1596 
22Ross Deopere   1:16:20.1  1557 
23Isaac Mitchell   1:19:50.1  1590 
24Steven Bergman   1:26:15.3  1543 
25Dolan Dye   1:30:34.5  1551 
DNFChad Czmowski     1606 
DNFAndy Swanson     1514 
DNFTerry Loging     1547 
DNFDan Brazil     1598 

Men - SP - Master - 30-39

 Place Points NameCity, StateTime USAC #BibTeam
1Greg Gentle   1:32:38.1  2531 
2Joel Ingvalson   1:33:11.1  2517 
3Bart Rodberg   1:34:41.1  2543 
4Marc Wiken   1:35:07.5  2520 
5543.95Shane Kullman   St Paul, MN1:35:24.2 19986  2518 
6Kolyn Kirkham   1:35:48.4  2522 
7Jeff Colbert   1:35:54.6  2549 
8Jon Friedell   1:38:12.5  2535 
9Adam Emanoff   1:39:56.4  2525 
10548.89Brad Skillicorn   Winona, MN1:42:21.0 41870  2546 
11Greg Sipe   1:42:29.8  2478 
12Patrick Sipe   1:43:34.6  2477 
13Richard Fiske   1:45:15.7  2533 
14Mario Minelli   1:46:32.1  2519 
15Mark Fisk   1:54:16.6  2541 
16554.82Heath Weisbrod   Saint Louis Park, MN1:01:59.5 228026  1582 
17Mark Patridge   1:02:08.7  1517 
18Maury Malanaphy   1:03:59.2  1594 
19Lonie Sauber   1:04:54.0  1535 
20Dusty Bennett   1:04:58.0  1612 
21Charlie SiMacEk   1:05:41.6  1588 
22Matthew Johnson   1:05:49.0  1578 
23561.74Brandt Elson   Breezy Point, MN1:07:00.8 208462  1559 
24Todd Nesvold   1:07:10.2  1569 
25563.72Rob McCready   Minneapolis, MN1:08:01.0 163928  1532 
26Dan Oachs   1:08:55.6  1562 
27Jacob Huot   1:08:56.1  1563 
28Matthew Horner   1:09:27.7  1539 
29Ton Tran   1:09:44.7  1580 
30Joel Cahalan   1:10:11.4  1577 
31Scott Schultz   1:10:29.2  1558 
32Rich Omdahl   1:10:31.7  1527 
33Jim Jaglo   1:10:52.1  1579 
34Taylor Kearns   1:13:41.3  1564 
35Kevin Flanders   1:15:03.5  1571 
36Brent Bruessel   1:16:59.7  1581 
37Troy Melhus   1:18:03.7  1601 
38Mick Waldspurger   1:18:27.2  1575 
39Josh Squires   1:19:31.0  1552 
40Lance Hauge   1:20:00.6  1603 
41Joseph Pedersen   1:20:28.9  1521 
42Joel Flom   1:20:32.5  1525 
43Tony Lema   1:26:14.5  1613 
44Mike Roettger   1:28:09.2  1591 
45Michael Soderburg   1:30:14.9  1537 
46Curt Schlough   1:31:03.1  1576 
47John Theget   1:33:25.4  1607 
DNFLee Bengel     1538 
DNFBrian Longley     1518 
DNFMatt Wolk     1585 

Men - SP - Master - 40-49

 Place Points NameCity, StateTime USAC #BibTeam
1Wallace Alexander   1:34:09.9  2551 
2540.87Thomas Thornquest   Golden Valley, MN1:36:25.4 147521  2536 
3541.73Scott Nechkash   Council Bluffs, IA1:40:01.9 172124  2529 
4Tim Boyle   1:40:28.0  2516 
5Paul Schoening   1:42:02.5  2547 
6John Romberg   1:42:08.6  2524 
7Dan Inderieden   1:45:40.4  2545 
8Brad Dettman   1:49:52.6  2550 
9Tim Kuntz   1:50:33.9  55 
10Paul Santa Cruz   1:03:55.4  1515 
11Michael Bowe   1:04:47.3  1548 
12Tory Nygren   1:04:54.0  1566 
13Randy Zarecki   1:06:18.9  1554 
14Gary Friedell   1:06:36.7  1610 
15Dave Stoen   1:07:24.5  1608 
16Mike Berkopec   1:07:33.0  1565 
17Robert Belz   1:10:13.4  1500 
18554.72Andre Chromey   Wanamingo, MN1:10:52.0 118064  1523 
19Don Hunley   1:11:54.4  1531 
20556.45Todd Trembley   Faribault, MN1:13:55.2 217961  1615 
21Bob Dahl   1:14:25.3  1587 
22Jerry Rohland   1:17:01.7  1597 
23Rick Diehl   1:17:32.7  1516 
24Kevin Foster   1:18:36.2  1536 
25Garrett Nolan   1:30:50.6  1556 
26Gary Smith   1:35:49.4  1604 
27Bill Hicks   1:37:19.2  1600 
28Ken Schik   1:42:19.3  1584 
29Tom Thies   1:48:16.3  1593 
DNFScott Hoff     2515 
DNFLeon Sternberg     1602 
DNFSteve Laurel     1541 
DNFJay Tegeder     1573 
DNFPhil Rogers     1542 

Men - SP - Master - 50-99

 Place Points NameCity, StateTime USAC #BibTeam
1Dan Meyer   1:41:06.4  2537 
2Rob Ogren   1:45:59.2  2521 
3Dewayne Bonnett   1:51:19.3  2530 
4Keith Kaufman   1:10:03.6  1522 
5John Klug   1:13:32.8  1528 
6Tom Bengel   1:13:59.7  1526 
7John Schmidt   1:15:19.1  1568 
8Maynard Johnson   1:19:55.3  1572 
9Bill Stuber   1:24:27.9  1574 
10Paul Mihalko   1:35:52.0  1524 

Men - PR/SM/EX - Master - 35-99

 Place Points NameCity, StateTime USAC #BibTeam
1420.65James (Jay) Richards   Callaway, MN1:49:36.6 29711  33 
2441.63Jan Rybar   Apple Valley, MN1:56:41.4 98534  45 
3462.60Jeff Lewis   Delano, MN2:02:23.1 211617  58 
4483.58Ed Alpasa   Maple Grove, MN2:03:35.2 160673  51 
5504.55Mark Hartney   Afton Mn2:10:21.7 15314  59 
6525.53Jeff Weyrens   Rosemount, MN2:11:06.7 76843  49 
7546.51Eric Guse   St Louis Park, MN2:12:03.9 211199  50 
8567.48Lawrence Sauber   Lakeville, MN2:13:00.7 135611  37 
DNFRonald Raymond   Roberts, WI 102723  56 

Men - EX - Junior - 14-18

 Place Points NameCity, StateTime USAC #BibTeam
DNFEric Thompson   Shoreview, MN 150540  29 

Men - EX - Senior - 19-34

 Place Points NameCity, StateTime USAC #BibTeam
1308.35Luke Nelson   Anoka, MN1:48:00.3 135538  44 
2320.99Brian Narum   Anoka, MN1:49:41.4 80077  47 
3333.64Brendan Moore   Prior Lake, MN1:50:03.9 210366  53 
4346.29Jesse Rients   Shakopee, MN1:51:30.0 147524  31 
5358.94Samuel Oftedahl   Shoreview, MN1:53:23.0 211093  30 
6371.58Caleb Bonnett   Strawberry Point, IA1:56:06.9 218880  35 
7384.23Benjamin Portilla   Oakland, CA1:56:18.8 208016  39 
8396.88Scott Stanke   Saint Paul, MN1:56:23.4 117497  60 
9409.53Brady Larson   Mankato, MN1:57:10.7 230900  46 
10422.17Eric Oftedahl   Shoreview, MN1:57:21.2 210080  34 
11434.82Jeff Herrera   Tempe, AZ1:59:16.9 210732  32 
12447.47Jay Henderson   Minneapolis, MN2:00:53.1 15779  41 
13460.12Scott Ralston   Farmington, MN2:01:12.0 69393  57 
14472.76Dave Bienapfl   Cottonwood Heights, UT2:02:38.4 147972  52 
15485.41Ben Moore   Boulder, CO2:05:00.7 228791  54 
16498.06Jacob Stechmann   Fountain Hills, AZ2:08:25.2 133200  48 
17510.71Mike Schroden   Saint Cloud, MN2:14:50.1 206703  36 
DNFJay Chesterman   Sioux City, IA 66231  40 
DNFDouglas Larsen   Minneapolis, MN 131081  38 
DNFChristopher Fisher   Inver Grove Heights, MN 182827  42 

Men - BG - Junior - 10-12

 Place Points NameCity, StateTime USAC #BibTeam
1Jake Richards   1:27:21.8  3292 
2Charlie Odonnell   1:30:05.0  3314 
3Brady Moran   1:32:05.7  3296 
DNFShea Franken     3262 
DNFTrevor Zarecki     3297 

Men - BG - Junior - 13-15

 Place Points NameCity, StateTime USAC #BibTeam
1Raleigh Goessling   1:03:01.5  3271 
2Zeb Rybar   1:06:55.7  3306 
3Ryan Bohn   1:19:53.7  3303 
4Jimmy Odonnell   1:23:59.2  3313 
5Tyler Boek   1:33:49.1  3281 
6Ryan Gallagher   1:48:48.9  3268 

Men - BG - Junior - 16-18

 Place Points NameCity, StateTime USAC #BibTeam
1Ben Riley   1:15:37.8  3280 

Men - BG - Senior - 19-29

 Place Points NameCity, StateTime USAC #BibTeam
1Mark Massicotte   1:04:01.5  3282 
2Jesse Nelson   1:13:43.9  3285 
3Kenneth Dicke   1:44:05.1  3290 
4Tim Williams   1:46:40.4  3274 

Men - BG - Master - 30-39

 Place Points NameCity, StateTime USAC #BibTeam
1Frank Ward   1:05:52.1  3301 
2Wade Strop   1:09:31.4  3298 
3Marc Harvieux   1:11:51.5  3273 
4Thomas McDonald   1:11:53.3  3270 
5Eric Hawkinson   1:16:49.5  3284 
6Christopher Marshall   1:17:33.6  3308 
7Larry Warrington   1:21:18.1  3295 
8Alejandro Monge   1:29:20.8  3299 

Men - BG - Master - 40-49

 Place Points NameCity, StateTime USAC #BibTeam
1Scott Buscher   1:06:34.1  3275 
2Chris Barth   1:13:19.2  3277 
3Eddie Karow   1:14:25.4  3291 
4Norm Busse   1:15:31.4  3312 
5Bruce Mosher   1:16:13.6  3266 
6Rick Nelson   1:18:12.5  3309 
7Kevin Knutson   1:21:35.9  3276 
8Keith Holloman   1:32:41.2  3294 
9Timothy Gallagher   1:33:06.8  3267 
DNFBill Franken     3272 
DNFKc Bohn     3304 

Men - BG - Master - 50-99

 Place Points NameCity, StateTime USAC #BibTeam
1Bill Combs   1:18:43.9  3279 
2Jerry Engen   1:21:01.4  3278 
3Charles Morrison   1:21:46.0  3264 
4Brad Beisel   1:24:03.2  3310 
5Larry Marx   1:25:29.1  3265 
6Mick Mohrlant   1:27:46.4  3286 
7Gary Schildgen   1:32:34.1  3293 
DNFCraig Swanson     3263 

Women - SP - Junior - 0-19

 Place Points NameCity, StateTime USAC #BibTeam
1Steph Thompson   1:30:36.2  1473 

Women - SP - Senior - 20-34

 Place Points NameCity, StateTime USAC #BibTeam
1Tina Moen   1:17:11.9  1545 
2Jennifer Grant   1:21:48.9  1609 
3Jenni Sprengelmeyer   1:24:15.6  1546 
4Alison Maas   1:26:55.3  1589 
5Andrea Bergman   1:28:08.6  1544 
DNFRebecca Grissom     1534 
DNFBecca Jo Ryder     1530 

Women - SP - Master - 35-99

 Place Points NameCity, StateTime USAC #BibTeam
1Beckie Alexander   1:15:53.4  1586 
2Jodie Karjala   1:19:47.8  1583 
3Kris Brazil   1:20:34.7  1614 
4Lori Belz   1:21:50.6  1595 
5Kimberly Wack   1:31:04.7  1520 
6Kim Wapola   1:39:00.9  1611 

Women - EX - Senior

 Place Points NameCity, StateTime USAC #BibTeam
1Jennifer Meyer   Inver Grove Heights, MN1:53:21.5 212052  43 

Women - BG - Junior - 0-18

 Place Points NameCity, StateTime USAC #BibTeam
1Emily Seidl   2:25:55.0  3305 
DNFRebekah Nolan     3307 

Women - BG - Senior - 19-29

 Place Points NameCity, StateTime USAC #BibTeam
DNFKayla Schroeder     3287 
DNFSarah Barrett     3288 
DNFDanielle Deopere     3300 

Women - BG - Master - 30-39

 Place Points NameCity, StateTime USAC #BibTeam
1Julie Wilbert   1:33:04.2  3283 
2Julie Ward   1:43:28.3  3302 
3Andrea Horner   1:50:45.4  3269 

Report missing or incorrect license numbers

Volkswagen
ShimanoBonk BreakerSpySierra NevadaUSACDF
UCI USA Cycling is the official governing body for all disciplines of competitive cycling in the United States. The 501c3, membership-based organization aims both to achieve sustained success in international cycling competition and to grow competitive cycling in America while delivering an exceptional customer experience.
View Children's Online Privacy Protection Policy
US Olympic Committee